TimeEDT,TemperatureF,Dew PointF,Humidity,Sea Level PressureIn,VisibilityMPH,Wind Direction,Wind SpeedMPH,Gust SpeedMPH,PrecipitationIn,Events,Conditions,WindDirDegrees,DateUTC
12:15 AM,77.0,62.6,61,29.89,10.0,SW,4.6,-,N/A,,Scattered Clouds,220,2013-05-12 04:15:00
12:35 AM,75.2,62.6,65,29.88,10.0,SW,3.5,-,N/A,,Scattered Clouds,220,2013-05-12 04:35:00
12:55 AM,75.2,62.6,65,29.87,10.0,SW,3.5,-,N/A,,Scattered Clouds,220,2013-05-12 04:55:00
1:15 AM,75.2,62.6,65,29.87,10.0,SW,4.6,-,N/A,,Scattered Clouds,220,2013-05-12 05:15:00
1:35 AM,73.4,42.8,33,29.88,10.0,SW,4.6,-,N/A,,Scattered Clouds,220,2013-05-12 05:35:00
1:55 AM,73.4,53.6,50,29.87,10.0,SW,5.8,-,N/A,,Clear,220,2013-05-12 05:55:00
2:15 AM,73.4,55.4,53,29.88,10.0,SW,5.8,-,N/A,,Mostly Cloudy,230,2013-05-12 06:15:00
2:35 AM,73.4,53.6,50,29.87,10.0,SW,5.8,-,N/A,,Scattered Clouds,220,2013-05-12 06:35:00
2:55 AM,73.4,59.0,61,29.87,10.0,SW,5.8,-,N/A,,Clear,230,2013-05-12 06:55:00
3:15 AM,73.4,62.6,69,29.87,10.0,WSW,4.6,-,N/A,,Scattered Clouds,240,2013-05-12 07:15:00
3:35 AM,73.4,62.6,69,29.86,10.0,SSW,3.5,-,N/A,,Scattered Clouds,210,2013-05-12 07:35:00
3:55 AM,73.4,62.6,69,29.86,10.0,SW,6.9,-,N/A,,Clear,220,2013-05-12 07:55:00
4:15 AM,71.6,62.6,73,29.85,10.0,SSW,4.6,-,N/A,,Scattered Clouds,210,2013-05-12 08:15:00
4:35 AM,71.6,62.6,73,29.84,10.0,SW,4.6,-,N/A,,Scattered Clouds,220,2013-05-12 08:35:00
5:15 AM,71.6,14.0,11,29.86,10.0,WSW,4.6,-,N/A,,Mostly Cloudy,240,2013-05-12 09:15:00
5:35 AM,71.6,60.8,69,29.87,10.0,WSW,4.6,-,N/A,,Scattered Clouds,240,2013-05-12 09:35:00
5:55 AM,69.8,60.8,73,29.86,10.0,WSW,4.6,-,N/A,,Scattered Clouds,240,2013-05-12 09:55:00
6:15 AM,69.8,53.6,56,29.87,10.0,WSW,5.8,-,N/A,,Scattered Clouds,250,2013-05-12 10:15:00
6:35 AM,69.8,59.0,68,29.88,10.0,West,4.6,-,N/A,,Clear,280,2013-05-12 10:35:00
6:55 AM,69.8,44.6,40,29.88,10.0,Calm,Calm,-,N/A,,Clear,0,2013-05-12 10:55:00
7:15 AM,69.8,59.0,68,29.89,10.0,Calm,Calm,-,N/A,,Clear,0,2013-05-12 11:15:00
7:35 AM,69.8,60.8,73,29.90,10.0,WNW,5.8,-,N/A,,Clear,290,2013-05-12 11:35:00
7:55 AM,69.8,60.8,73,29.90,10.0,WNW,4.6,-,N/A,,Clear,290,2013-05-12 11:55:00
8:15 AM,71.6,59.0,64,29.91,10.0,NW,9.2,-,N/A,,Clear,310,2013-05-12 12:15:00
8:35 AM,71.6,59.0,64,29.92,10.0,WNW,8.1,-,N/A,,Clear,300,2013-05-12 12:35:00
8:55 AM,73.4,57.2,57,29.92,10.0,NW,9.2,-,N/A,,Clear,320,2013-05-12 12:55:00
9:15 AM,73.4,55.4,53,29.92,10.0,NNW,9.2,-,N/A,,Scattered Clouds,340,2013-05-12 13:15:00
9:35 AM,73.4,55.4,53,29.92,10.0,North,10.4,-,N/A,,Scattered Clouds,350,2013-05-12 13:35:00
9:55 AM,73.4,53.6,50,29.93,10.0,NNE,8.1,-,N/A,,Scattered Clouds,20,2013-05-12 13:55:00
10:15 AM,75.2,53.6,47,29.93,10.0,NW,8.1,-,N/A,,Clear,310,2013-05-12 14:15:00
10:35 AM,75.2,46.4,36,29.93,10.0,NW,4.6,-,N/A,,Clear,320,2013-05-12 14:35:00
10:55 AM,75.2,24.8,15,29.93,10.0,North,8.1,-,N/A,,Scattered Clouds,350,2013-05-12 14:55:00
11:15 AM,77.0,21.2,12,29.93,10.0,North,4.6,-,N/A,,Scattered Clouds,10,2013-05-12 15:15:00
11:35 AM,77.0,15.8,10,29.93,10.0,North,6.9,-,N/A,,Clear,350,2013-05-12 15:35:00
11:55 AM,78.8,5.0,6,29.93,10.0,NNW,4.6,-,N/A,,Clear,340,2013-05-12 15:55:00
12:15 PM,77.0,-0.4,5,29.93,10.0,Calm,Calm,-,N/A,,Scattered Clouds,0,2013-05-12 16:15:00
12:35 PM,78.8,1.4,5,29.92,10.0,Calm,Calm,-,N/A,,Mostly Cloudy,0,2013-05-12 16:35:00
12:55 PM,78.8,-9999,N/A,29.92,10.0,NNW,4.6,-,N/A,,Scattered Clouds,340,2013-05-12 16:55:00
1:15 PM,78.8,-9999,N/A,29.92,10.0,West,5.8,-,N/A,,Scattered Clouds,280,2013-05-12 17:15:00
1:35 PM,80.6,-9999,N/A,29.92,10.0,WSW,8.1,16.1,N/A,,Clear,250,2013-05-12 17:35:00
1:55 PM,80.6,-9999,N/A,29.92,10.0,WSW,8.1,-,N/A,,Scattered Clouds,250,2013-05-12 17:55:00
2:15 PM,80.6,-9999,N/A,29.92,10.0,West,10.4,-,N/A,,Scattered Clouds,260,2013-05-12 18:15:00
2:35 PM,80.6,-9999,N/A,29.91,10.0,NW,10.4,-,N/A,,Scattered Clouds,320,2013-05-12 18:35:00
2:55 PM,80.6,-9999,N/A,29.92,10.0,WNW,9.2,-,N/A,,Scattered Clouds,300,2013-05-12 18:55:00
3:15 PM,80.6,-9999,N/A,29.91,10.0,NW,9.2,-,N/A,,Clear,310,2013-05-12 19:15:00
3:35 PM,82.4,-9999,N/A,29.90,10.0,WNW,12.7,-,N/A,,Clear,300,2013-05-12 19:35:00
3:55 PM,80.6,-9999,N/A,29.90,10.0,NNW,9.2,-,N/A,,Clear,330,2013-05-12 19:55:00
4:15 PM,82.4,-9999,N/A,29.89,10.0,NW,12.7,17.3,N/A,,Clear,320,2013-05-12 20:15:00
4:35 PM,82.4,-9999,N/A,29.89,10.0,West,15.0,19.6,N/A,,Scattered Clouds,280,2013-05-12 20:35:00
4:55 PM,82.4,-9999,N/A,29.89,10.0,WSW,8.1,-,N/A,,Clear,250,2013-05-12 20:55:00
5:15 PM,82.4,-9999,N/A,29.89,10.0,West,9.2,-,N/A,,Clear,260,2013-05-12 21:15:00
5:35 PM,82.4,-9999,N/A,29.90,10.0,WSW,8.1,-,N/A,,Scattered Clouds,250,2013-05-12 21:35:00
5:55 PM,82.4,-9999,N/A,29.90,10.0,West,6.9,-,N/A,,Clear,270,2013-05-12 21:55:00
6:15 PM,80.6,-9999,N/A,29.90,10.0,West,11.5,19.6,N/A,,Clear,280,2013-05-12 22:15:00
6:35 PM,80.6,-9999,N/A,29.91,10.0,West,6.9,-,N/A,,Clear,260,2013-05-12 22:35:00
6:55 PM,80.6,-9999,N/A,29.91,10.0,West,4.6,-,N/A,,Clear,270,2013-05-12 22:55:00
7:15 PM,78.8,-9999,N/A,29.92,10.0,West,4.6,-,N/A,,Clear,270,2013-05-12 23:15:00
7:35 PM,78.8,-9999,N/A,29.93,10.0,West,3.5,-,N/A,,Clear,270,2013-05-12 23:35:00
7:55 PM,77.0,-9999,N/A,29.94,10.0,Calm,Calm,-,N/A,,Clear,0,2013-05-12 23:55:00
8:15 PM,75.2,-9999,N/A,29.94,10.0,WNW,3.5,-,N/A,,Clear,290,2013-05-13 00:15:00
8:35 PM,73.4,-9999,N/A,29.95,10.0,Calm,Calm,-,N/A,,Clear,0,2013-05-13 00:35:00
8:55 PM,69.8,-9999,N/A,29.96,7.0,Calm,Calm,-,N/A,,Clear,0,2013-05-13 00:55:00
9:15 PM,66.2,3.2,8,29.97,10.0,Calm,Calm,-,N/A,,Clear,0,2013-05-13 01:15:00
9:35 PM,68.0,26.6,21,29.97,10.0,NW,3.5,-,N/A,,Clear,320,2013-05-13 01:35:00
9:55 PM,68.0,41.0,37,29.98,7.0,WNW,3.5,-,N/A,,Clear,300,2013-05-13 01:55:00
10:15 PM,66.2,-5.8,5,29.99,10.0,NW,3.5,-,N/A,,Clear,310,2013-05-13 02:15:00
10:35 PM,64.4,42.8,45,30.00,10.0,Calm,Calm,-,N/A,,Clear,0,2013-05-13 02:35:00
10:55 PM,62.6,46.4,55,30.00,10.0,Calm,Calm,-,N/A,,Clear,0,2013-05-13 02:55:00
11:15 PM,60.8,39.2,45,30.01,10.0,Calm,Calm,-,N/A,,Clear,0,2013-05-13 03:15:00
11:35 PM,60.8,48.2,63,30.01,10.0,Calm,Calm,-,N/A,,Clear,0,2013-05-13 03:35:00
11:55 PM,60.8,46.4,59,30.01,10.0,Calm,Calm,-,N/A,,Clear,0,2013-05-13 03:55:00